sensor_id;sensor_type;location;lat;lon;timestamp;P1;durP1;ratioP1;P2;durP2;ratioP2
21647;SDS011;10985;54.182;7.890;2023-07-08T00:00:18;5.32;;;4.45;;
21647;SDS011;10985;54.182;7.890;2023-07-08T00:02:45;5.10;;;4.07;;
21647;SDS011;10985;54.182;7.890;2023-07-08T00:05:12;5.97;;;4.00;;
21647;SDS011;10985;54.182;7.890;2023-07-08T00:07:39;7.05;;;4.72;;
21647;SDS011;10985;54.182;7.890;2023-07-08T00:12:42;4.53;;;4.13;;
21647;SDS011;10985;54.182;7.890;2023-07-08T00:15:09;5.35;;;4.28;;
21647;SDS011;10985;54.182;7.890;2023-07-08T00:17:36;6.68;;;3.90;;
21647;SDS011;10985;54.182;7.890;2023-07-08T00:20:04;6.18;;;4.07;;
21647;SDS011;10985;54.182;7.890;2023-07-08T00:22:44;8.98;;;4.35;;
21647;SDS011;10985;54.182;7.890;2023-07-08T00:25:12;5.00;;;3.88;;
21647;SDS011;10985;54.182;7.890;2023-07-08T00:27:40;5.85;;;3.72;;
21647;SDS011;10985;54.182;7.890;2023-07-08T00:30:11;4.72;;;4.22;;
21647;SDS011;10985;54.182;7.890;2023-07-08T00:32:41;5.45;;;3.83;;
21647;SDS011;10985;54.182;7.890;2023-07-08T00:35:07;5.47;;;4.32;;
21647;SDS011;10985;54.182;7.890;2023-07-08T00:37:32;6.47;;;4.40;;
21647;SDS011;10985;54.182;7.890;2023-07-08T00:39:58;8.23;;;4.57;;
21647;SDS011;10985;54.182;7.890;2023-07-08T00:42:24;4.50;;;3.70;;
21647;SDS011;10985;54.182;7.890;2023-07-08T00:44:50;4.95;;;4.43;;
21647;SDS011;10985;54.182;7.890;2023-07-08T00:47:16;5.70;;;4.32;;
21647;SDS011;10985;54.182;7.890;2023-07-08T00:49:55;5.40;;;4.38;;
21647;SDS011;10985;54.182;7.890;2023-07-08T00:54:54;5.45;;;4.90;;
21647;SDS011;10985;54.182;7.890;2023-07-08T00:57:28;8.82;;;5.05;;
21647;SDS011;10985;54.182;7.890;2023-07-08T01:00:06;8.73;;;4.75;;
21647;SDS011;10985;54.182;7.890;2023-07-08T01:02:51;10.55;;;5.03;;
21647;SDS011;10985;54.182;7.890;2023-07-08T01:05:21;6.30;;;4.90;;
21647;SDS011;10985;54.182;7.890;2023-07-08T01:07:50;6.25;;;4.65;;
21647;SDS011;10985;54.182;7.890;2023-07-08T01:10:22;5.10;;;4.60;;
21647;SDS011;10985;54.182;7.890;2023-07-08T01:12:59;7.25;;;4.93;;
21647;SDS011;10985;54.182;7.890;2023-07-08T01:15:30;6.30;;;4.68;;
21647;SDS011;10985;54.182;7.890;2023-07-08T01:18:00;8.18;;;4.80;;
21647;SDS011;10985;54.182;7.890;2023-07-08T01:20:25;8.18;;;4.93;;
21647;SDS011;10985;54.182;7.890;2023-07-08T01:22:51;5.40;;;4.90;;
21647;SDS011;10985;54.182;7.890;2023-07-08T01:25:17;6.13;;;4.72;;
21647;SDS011;10985;54.182;7.890;2023-07-08T01:27:48;8.00;;;4.78;;
21647;SDS011;10985;54.182;7.890;2023-07-08T01:30:17;9.23;;;5.18;;
21647;SDS011;10985;54.182;7.890;2023-07-08T01:32:49;6.78;;;5.30;;
21647;SDS011;10985;54.182;7.890;2023-07-08T01:35:19;10.30;;;5.38;;
21647;SDS011;10985;54.182;7.890;2023-07-08T01:37:48;5.72;;;4.85;;
21647;SDS011;10985;54.182;7.890;2023-07-08T01:42:56;8.27;;;5.72;;
21647;SDS011;10985;54.182;7.890;2023-07-08T01:45:23;11.73;;;5.55;;
21647;SDS011;10985;54.182;7.890;2023-07-08T01:47:52;9.90;;;5.45;;
21647;SDS011;10985;54.182;7.890;2023-07-08T01:50:27;7.63;;;5.72;;
21647;SDS011;10985;54.182;7.890;2023-07-08T01:52:54;10.98;;;5.07;;
21647;SDS011;10985;54.182;7.890;2023-07-08T01:55:23;8.68;;;5.38;;
21647;SDS011;10985;54.182;7.890;2023-07-08T01:57:52;7.22;;;5.88;;
21647;SDS011;10985;54.182;7.890;2023-07-08T02:00:19;10.15;;;6.28;;
21647;SDS011;10985;54.182;7.890;2023-07-08T02:02:45;7.47;;;5.80;;
21647;SDS011;10985;54.182;7.890;2023-07-08T02:05:11;6.28;;;5.55;;
21647;SDS011;10985;54.182;7.890;2023-07-08T02:07:37;6.75;;;6.03;;
21647;SDS011;10985;54.182;7.890;2023-07-08T02:10:02;10.98;;;5.70;;
21647;SDS011;10985;54.182;7.890;2023-07-08T02:12:28;10.70;;;5.25;;
21647;SDS011;10985;54.182;7.890;2023-07-08T02:14:54;12.00;;;5.97;;
21647;SDS011;10985;54.182;7.890;2023-07-08T02:17:19;8.93;;;5.90;;
21647;SDS011;10985;54.182;7.890;2023-07-08T02:19:45;10.38;;;6.45;;
21647;SDS011;10985;54.182;7.890;2023-07-08T02:22:10;9.15;;;5.72;;
21647;SDS011;10985;54.182;7.890;2023-07-08T02:24:36;9.45;;;6.15;;
21647;SDS011;10985;54.182;7.890;2023-07-08T02:27:02;14.00;;;6.78;;
21647;SDS011;10985;54.182;7.890;2023-07-08T02:29:27;7.07;;;6.38;;
21647;SDS011;10985;54.182;7.890;2023-07-08T02:31:53;8.95;;;6.18;;
21647;SDS011;10985;54.182;7.890;2023-07-08T02:34:18;9.32;;;6.13;;
21647;SDS011;10985;54.182;7.890;2023-07-08T02:36:44;8.32;;;6.28;;
21647;SDS011;10985;54.182;7.890;2023-07-08T02:39:10;8.57;;;6.10;;
21647;SDS011;10985;54.182;7.890;2023-07-08T02:41:36;11.98;;;6.38;;
21647;SDS011;10985;54.182;7.890;2023-07-08T02:44:02;11.75;;;6.60;;
21647;SDS011;10985;54.182;7.890;2023-07-08T02:46:27;8.63;;;6.93;;
21647;SDS011;10985;54.182;7.890;2023-07-08T02:48:53;9.18;;;6.55;;
21647;SDS011;10985;54.182;7.890;2023-07-08T02:51:18;11.18;;;6.85;;
21647;SDS011;10985;54.182;7.890;2023-07-08T02:53:44;10.18;;;7.63;;
21647;SDS011;10985;54.182;7.890;2023-07-08T02:56:09;13.98;;;7.32;;
21647;SDS011;10985;54.182;7.890;2023-07-08T02:58:35;12.15;;;6.95;;
21647;SDS011;10985;54.182;7.890;2023-07-08T03:01:01;11.23;;;7.47;;
21647;SDS011;10985;54.182;7.890;2023-07-08T03:03:27;10.13;;;7.07;;
21647;SDS011;10985;54.182;7.890;2023-07-08T03:05:56;9.18;;;7.13;;
21647;SDS011;10985;54.182;7.890;2023-07-08T03:08:27;12.80;;;7.30;;
21647;SDS011;10985;54.182;7.890;2023-07-08T03:10:58;9.23;;;7.82;;
21647;SDS011;10985;54.182;7.890;2023-07-08T03:13:29;13.38;;;7.75;;
21647;SDS011;10985;54.182;7.890;2023-07-08T03:15:55;11.55;;;7.35;;
21647;SDS011;10985;54.182;7.890;2023-07-08T03:18:24;8.40;;;7.38;;
21647;SDS011;10985;54.182;7.890;2023-07-08T03:20:51;8.45;;;7.63;;
21647;SDS011;10985;54.182;7.890;2023-07-08T03:23:18;11.05;;;8.30;;
21647;SDS011;10985;54.182;7.890;2023-07-08T03:25:44;9.02;;;7.97;;
21647;SDS011;10985;54.182;7.890;2023-07-08T03:28:09;13.13;;;8.20;;
21647;SDS011;10985;54.182;7.890;2023-07-08T03:30:40;12.13;;;7.88;;
21647;SDS011;10985;54.182;7.890;2023-07-08T03:33:07;12.32;;;8.23;;
21647;SDS011;10985;54.182;7.890;2023-07-08T03:35:33;9.57;;;7.68;;
21647;SDS011;10985;54.182;7.890;2023-07-08T03:37:59;11.07;;;7.80;;
21647;SDS011;10985;54.182;7.890;2023-07-08T03:40:24;14.35;;;8.80;;
21647;SDS011;10985;54.182;7.890;2023-07-08T03:42:50;10.73;;;8.35;;
21647;SDS011;10985;54.182;7.890;2023-07-08T03:45:15;14.30;;;8.68;;
21647;SDS011;10985;54.182;7.890;2023-07-08T03:47:41;12.48;;;8.60;;
21647;SDS011;10985;54.182;7.890;2023-07-08T03:50:09;10.43;;;9.02;;
21647;SDS011;10985;54.182;7.890;2023-07-08T03:52:49;14.57;;;8.60;;
21647;SDS011;10985;54.182;7.890;2023-07-08T03:55:16;13.70;;;8.88;;
21647;SDS011;10985;54.182;7.890;2023-07-08T03:57:42;12.18;;;9.25;;
21647;SDS011;10985;54.182;7.890;2023-07-08T04:00:08;13.38;;;8.93;;
21647;SDS011;10985;54.182;7.890;2023-07-08T04:02:35;10.63;;;8.80;;
21647;SDS011;10985;54.182;7.890;2023-07-08T04:05:01;12.13;;;8.65;;
21647;SDS011;10985;54.182;7.890;2023-07-08T04:07:28;13.95;;;9.82;;
21647;SDS011;10985;54.182;7.890;2023-07-08T04:09:53;12.80;;;9.60;;
21647;SDS011;10985;54.182;7.890;2023-07-08T04:12:19;14.48;;;9.80;;
21647;SDS011;10985;54.182;7.890;2023-07-08T04:14:44;16.92;;;9.75;;
21647;SDS011;10985;54.182;7.890;2023-07-08T04:17:10;12.93;;;9.45;;
21647;SDS011;10985;54.182;7.890;2023-07-08T04:19:36;13.82;;;9.95;;
21647;SDS011;10985;54.182;7.890;2023-07-08T04:22:04;11.73;;;8.60;;
21647;SDS011;10985;54.182;7.890;2023-07-08T04:24:30;13.20;;;9.02;;
21647;SDS011;10985;54.182;7.890;2023-07-08T04:26:56;11.15;;;9.93;;
21647;SDS011;10985;54.182;7.890;2023-07-08T04:29:23;10.02;;;9.02;;
21647;SDS011;10985;54.182;7.890;2023-07-08T04:31:49;11.75;;;8.27;;
21647;SDS011;10985;54.182;7.890;2023-07-08T04:34:15;12.15;;;8.77;;
21647;SDS011;10985;54.182;7.890;2023-07-08T04:36:41;11.43;;;8.77;;
21647;SDS011;10985;54.182;7.890;2023-07-08T04:39:08;9.75;;;8.45;;
21647;SDS011;10985;54.182;7.890;2023-07-08T04:41:36;11.57;;;8.77;;
21647;SDS011;10985;54.182;7.890;2023-07-08T04:44:06;11.43;;;8.88;;
21647;SDS011;10985;54.182;7.890;2023-07-08T04:46:45;11.13;;;8.68;;
21647;SDS011;10985;54.182;7.890;2023-07-08T04:49:16;14.93;;;9.05;;
21647;SDS011;10985;54.182;7.890;2023-07-08T04:51:42;11.07;;;8.40;;
21647;SDS011;10985;54.182;7.890;2023-07-08T04:54:08;11.77;;;8.35;;
21647;SDS011;10985;54.182;7.890;2023-07-08T04:56:41;13.52;;;8.90;;
21647;SDS011;10985;54.182;7.890;2023-07-08T04:59:12;9.95;;;8.20;;
21647;SDS011;10985;54.182;7.890;2023-07-08T05:01:40;8.90;;;7.85;;
21647;SDS011;10985;54.182;7.890;2023-07-08T05:04:06;9.55;;;8.20;;
21647;SDS011;10985;54.182;7.890;2023-07-08T05:06:33;8.90;;;7.90;;
21647;SDS011;10985;54.182;7.890;2023-07-08T05:09:00;8.90;;;7.72;;
21647;SDS011;10985;54.182;7.890;2023-07-08T05:11:26;13.50;;;7.85;;
21647;SDS011;10985;54.182;7.890;2023-07-08T05:13:51;11.35;;;7.47;;
21647;SDS011;10985;54.182;7.890;2023-07-08T05:16:17;10.35;;;7.30;;
21647;SDS011;10985;54.182;7.890;2023-07-08T05:18:43;8.50;;;7.65;;
21647;SDS011;10985;54.182;7.890;2023-07-08T05:21:09;9.02;;;7.53;;
21647;SDS011;10985;54.182;7.890;2023-07-08T05:23:35;8.13;;;6.28;;
21647;SDS011;10985;54.182;7.890;2023-07-08T05:26:02;9.88;;;6.65;;
21647;SDS011;10985;54.182;7.890;2023-07-08T05:28:29;10.50;;;7.68;;
21647;SDS011;10985;54.182;7.890;2023-07-08T05:30:54;9.05;;;8.15;;
21647;SDS011;10985;54.182;7.890;2023-07-08T05:33:21;37.88;;;23.50;;
21647;SDS011;10985;54.182;7.890;2023-07-08T05:35:48;13.77;;;8.88;;
21647;SDS011;10985;54.182;7.890;2023-07-08T05:38:13;11.40;;;7.40;;
21647;SDS011;10985;54.182;7.890;2023-07-08T05:40:39;9.45;;;7.32;;
21647;SDS011;10985;54.182;7.890;2023-07-08T05:43:04;10.35;;;6.95;;
21647;SDS011;10985;54.182;7.890;2023-07-08T05:45:31;9.63;;;6.80;;
21647;SDS011;10985;54.182;7.890;2023-07-08T05:47:57;13.07;;;7.40;;
21647;SDS011;10985;54.182;7.890;2023-07-08T05:50:22;12.23;;;9.35;;
21647;SDS011;10985;54.182;7.890;2023-07-08T05:52:48;10.15;;;7.20;;
21647;SDS011;10985;54.182;7.890;2023-07-08T05:55:14;12.25;;;8.63;;
21647;SDS011;10985;54.182;7.890;2023-07-08T05:57:39;8.48;;;7.20;;
21647;SDS011;10985;54.182;7.890;2023-07-08T06:00:05;9.15;;;7.00;;
21647;SDS011;10985;54.182;7.890;2023-07-08T06:02:31;7.60;;;6.88;;
21647;SDS011;10985;54.182;7.890;2023-07-08T06:04:57;11.75;;;7.45;;
21647;SDS011;10985;54.182;7.890;2023-07-08T06:07:22;10.88;;;8.20;;
21647;SDS011;10985;54.182;7.890;2023-07-08T06:09:48;12.75;;;7.28;;
21647;SDS011;10985;54.182;7.890;2023-07-08T06:12:13;10.02;;;6.97;;
21647;SDS011;10985;54.182;7.890;2023-07-08T06:14:42;8.65;;;6.65;;
21647;SDS011;10985;54.182;7.890;2023-07-08T06:17:08;11.73;;;7.50;;
21647;SDS011;10985;54.182;7.890;2023-07-08T06:19:34;10.35;;;8.05;;
21647;SDS011;10985;54.182;7.890;2023-07-08T06:21:59;9.75;;;7.80;;
21647;SDS011;10985;54.182;7.890;2023-07-08T06:24:25;8.98;;;7.28;;
21647;SDS011;10985;54.182;7.890;2023-07-08T06:26:50;17.40;;;12.40;;
21647;SDS011;10985;54.182;7.890;2023-07-08T06:29:16;11.45;;;8.35;;
21647;SDS011;10985;54.182;7.890;2023-07-08T06:31:41;12.52;;;8.48;;
21647;SDS011;10985;54.182;7.890;2023-07-08T06:34:07;9.07;;;7.60;;
21647;SDS011;10985;54.182;7.890;2023-07-08T06:36:32;8.90;;;8.00;;
21647;SDS011;10985;54.182;7.890;2023-07-08T06:38:58;10.57;;;7.80;;
21647;SDS011;10985;54.182;7.890;2023-07-08T06:41:24;11.68;;;8.50;;
21647;SDS011;10985;54.182;7.890;2023-07-08T06:43:49;10.02;;;8.43;;
21647;SDS011;10985;54.182;7.890;2023-07-08T06:46:15;10.88;;;8.35;;
21647;SDS011;10985;54.182;7.890;2023-07-08T06:48:41;10.02;;;8.75;;
21647;SDS011;10985;54.182;7.890;2023-07-08T06:51:06;11.65;;;8.75;;
21647;SDS011;10985;54.182;7.890;2023-07-08T06:53:32;8.90;;;7.88;;
21647;SDS011;10985;54.182;7.890;2023-07-08T06:55:58;13.07;;;8.27;;
21647;SDS011;10985;54.182;7.890;2023-07-08T06:58:24;11.60;;;8.65;;
21647;SDS011;10985;54.182;7.890;2023-07-08T07:00:49;10.68;;;9.10;;
21647;SDS011;10985;54.182;7.890;2023-07-08T07:03:15;9.75;;;8.43;;
21647;SDS011;10985;54.182;7.890;2023-07-08T07:05:40;8.90;;;8.05;;
21647;SDS011;10985;54.182;7.890;2023-07-08T07:08:08;12.45;;;7.72;;
21647;SDS011;10985;54.182;7.890;2023-07-08T07:10:33;8.38;;;7.57;;
21647;SDS011;10985;54.182;7.890;2023-07-08T07:12:59;8.77;;;7.90;;
21647;SDS011;10985;54.182;7.890;2023-07-08T07:15:25;12.82;;;8.32;;
21647;SDS011;10985;54.182;7.890;2023-07-08T07:17:50;12.48;;;9.45;;
21647;SDS011;10985;54.182;7.890;2023-07-08T07:20:16;9.75;;;8.15;;
21647;SDS011;10985;54.182;7.890;2023-07-08T07:22:41;9.50;;;7.85;;
21647;SDS011;10985;54.182;7.890;2023-07-08T07:25:07;8.35;;;7.55;;
21647;SDS011;10985;54.182;7.890;2023-07-08T07:27:33;8.43;;;7.57;;
21647;SDS011;10985;54.182;7.890;2023-07-08T07:29:59;9.65;;;8.07;;
21647;SDS011;10985;54.182;7.890;2023-07-08T07:32:24;11.63;;;7.88;;
21647;SDS011;10985;54.182;7.890;2023-07-08T07:34:51;10.70;;;7.90;;
21647;SDS011;10985;54.182;7.890;2023-07-08T07:37:18;10.75;;;8.32;;
21647;SDS011;10985;54.182;7.890;2023-07-08T07:39:44;14.50;;;7.72;;
21647;SDS011;10985;54.182;7.890;2023-07-08T07:42:10;8.40;;;7.50;;
21647;SDS011;10985;54.182;7.890;2023-07-08T07:44:36;9.75;;;8.13;;
21647;SDS011;10985;54.182;7.890;2023-07-08T07:47:04;10.45;;;8.73;;
21647;SDS011;10985;54.182;7.890;2023-07-08T07:49:30;10.05;;;8.57;;
21647;SDS011;10985;54.182;7.890;2023-07-08T07:51:56;10.35;;;7.90;;
21647;SDS011;10985;54.182;7.890;2023-07-08T07:54:21;11.07;;;8.55;;
21647;SDS011;10985;54.182;7.890;2023-07-08T07:56:47;12.10;;;9.45;;
21647;SDS011;10985;54.182;7.890;2023-07-08T07:59:13;16.77;;;8.45;;
21647;SDS011;10985;54.182;7.890;2023-07-08T08:01:39;14.05;;;9.52;;
21647;SDS011;10985;54.182;7.890;2023-07-08T08:04:06;11.35;;;9.00;;
21647;SDS011;10985;54.182;7.890;2023-07-08T08:06:33;12.38;;;8.52;;
21647;SDS011;10985;54.182;7.890;2023-07-08T08:08:59;10.25;;;8.60;;
21647;SDS011;10985;54.182;7.890;2023-07-08T08:11:24;12.60;;;8.57;;
21647;SDS011;10985;54.182;7.890;2023-07-08T08:13:53;11.15;;;8.45;;
21647;SDS011;10985;54.182;7.890;2023-07-08T08:16:19;11.68;;;8.25;;
21647;SDS011;10985;54.182;7.890;2023-07-08T08:18:45;11.13;;;7.88;;
21647;SDS011;10985;54.182;7.890;2023-07-08T08:21:11;10.40;;;7.60;;
21647;SDS011;10985;54.182;7.890;2023-07-08T08:23:36;8.73;;;7.82;;
21647;SDS011;10985;54.182;7.890;2023-07-08T08:26:02;14.73;;;9.05;;
21647;SDS011;10985;54.182;7.890;2023-07-08T08:28:27;15.13;;;7.93;;
21647;SDS011;10985;54.182;7.890;2023-07-08T08:30:53;10.13;;;7.05;;
21647;SDS011;10985;54.182;7.890;2023-07-08T08:33:19;8.20;;;7.20;;
21647;SDS011;10985;54.182;7.890;2023-07-08T08:35:45;9.00;;;7.43;;
21647;SDS011;10985;54.182;7.890;2023-07-08T08:38:11;8.90;;;7.28;;
21647;SDS011;10985;54.182;7.890;2023-07-08T08:40:36;11.18;;;7.32;;
21647;SDS011;10985;54.182;7.890;2023-07-08T08:43:24;14.38;;;7.07;;
21647;SDS011;10985;54.182;7.890;2023-07-08T08:48:31;9.20;;;7.25;;
21647;SDS011;10985;54.182;7.890;2023-07-08T08:51:04;9.60;;;7.00;;
21647;SDS011;10985;54.182;7.890;2023-07-08T08:53:34;10.70;;;6.53;;
21647;SDS011;10985;54.182;7.890;2023-07-08T08:56:03;6.65;;;5.93;;
21647;SDS011;10985;54.182;7.890;2023-07-08T09:01:09;7.18;;;6.28;;
21647;SDS011;10985;54.182;7.890;2023-07-08T09:03:40;6.53;;;5.95;;
21647;SDS011;10985;54.182;7.890;2023-07-08T09:06:20;9.07;;;5.47;;
21647;SDS011;10985;54.182;7.890;2023-07-08T09:08:54;10.27;;;5.70;;
21647;SDS011;10985;54.182;7.890;2023-07-08T09:11:41;7.63;;;6.10;;
21647;SDS011;10985;54.182;7.890;2023-07-08T09:14:14;8.10;;;5.75;;
21647;SDS011;10985;54.182;7.890;2023-07-08T09:19:44;10.20;;;6.35;;
21647;SDS011;10985;54.182;7.890;2023-07-08T09:27:36;7.90;;;6.15;;
21647;SDS011;10985;54.182;7.890;2023-07-08T09:30:02;8.30;;;5.85;;
21647;SDS011;10985;54.182;7.890;2023-07-08T09:32:28;6.85;;;6.05;;
21647;SDS011;10985;54.182;7.890;2023-07-08T09:34:55;10.68;;;6.40;;
21647;SDS011;10985;54.182;7.890;2023-07-08T09:37:27;7.70;;;5.57;;
21647;SDS011;10985;54.182;7.890;2023-07-08T09:39:55;8.73;;;5.65;;
21647;SDS011;10985;54.182;7.890;2023-07-08T09:42:25;8.05;;;6.10;;
21647;SDS011;10985;54.182;7.890;2023-07-08T09:45:00;7.28;;;6.20;;
21647;SDS011;10985;54.182;7.890;2023-07-08T09:47:35;7.55;;;6.22;;
21647;SDS011;10985;54.182;7.890;2023-07-08T09:50:15;6.68;;;6.03;;
21647;SDS011;10985;54.182;7.890;2023-07-08T09:52:50;11.50;;;6.47;;
21647;SDS011;10985;54.182;7.890;2023-07-08T09:55:17;10.75;;;6.90;;
21647;SDS011;10985;54.182;7.890;2023-07-08T09:57:43;13.35;;;6.40;;
21647;SDS011;10985;54.182;7.890;2023-07-08T10:00:13;7.95;;;6.78;;
21647;SDS011;10985;54.182;7.890;2023-07-08T10:02:56;11.00;;;7.25;;
21647;SDS011;10985;54.182;7.890;2023-07-08T10:07:58;8.10;;;5.68;;
21647;SDS011;10985;54.182;7.890;2023-07-08T10:10:32;6.43;;;5.80;;
21647;SDS011;10985;54.182;7.890;2023-07-08T10:13:02;10.38;;;6.13;;
21647;SDS011;10985;54.182;7.890;2023-07-08T10:15:43;7.30;;;5.13;;
21647;SDS011;10985;54.182;7.890;2023-07-08T10:18:14;6.88;;;5.53;;
21647;SDS011;10985;54.182;7.890;2023-07-08T10:23:23;7.68;;;5.07;;
21647;SDS011;10985;54.182;7.890;2023-07-08T10:28:35;7.30;;;5.00;;
21647;SDS011;10985;54.182;7.890;2023-07-08T10:31:30;6.60;;;4.90;;
21647;SDS011;10985;54.182;7.890;2023-07-08T10:39:37;7.65;;;5.07;;
21647;SDS011;10985;54.182;7.890;2023-07-08T10:55:53;4.78;;;4.38;;
21647;SDS011;10985;54.182;7.890;2023-07-08T11:03:39;5.75;;;4.10;;
21647;SDS011;10985;54.182;7.890;2023-07-08T11:06:23;5.07;;;4.50;;
21647;SDS011;10985;54.182;7.890;2023-07-08T11:08:53;5.78;;;4.40;;
21647;SDS011;10985;54.182;7.890;2023-07-08T11:14:03;6.07;;;4.15;;
21647;SDS011;10985;54.182;7.890;2023-07-08T11:16:52;6.15;;;4.03;;
21647;SDS011;10985;54.182;7.890;2023-07-08T11:19:21;6.20;;;4.75;;
21647;SDS011;10985;54.182;7.890;2023-07-08T11:21:52;5.78;;;5.18;;
21647;SDS011;10985;54.182;7.890;2023-07-08T11:24:24;5.88;;;4.28;;
21647;SDS011;10985;54.182;7.890;2023-07-08T11:29:59;7.78;;;3.85;;
21647;SDS011;10985;54.182;7.890;2023-07-08T11:32:26;4.63;;;3.22;;
21647;SDS011;10985;54.182;7.890;2023-07-08T11:34:54;6.65;;;3.60;;
21647;SDS011;10985;54.182;7.890;2023-07-08T11:37:22;6.35;;;5.70;;
21647;SDS011;10985;54.182;7.890;2023-07-08T11:39:58;5.05;;;4.55;;
21647;SDS011;10985;54.182;7.890;2023-07-08T11:42:37;6.45;;;3.45;;
21647;SDS011;10985;54.182;7.890;2023-07-08T11:45:08;6.38;;;3.80;;
21647;SDS011;10985;54.182;7.890;2023-07-08T11:47:46;5.90;;;3.85;;
21647;SDS011;10985;54.182;7.890;2023-07-08T11:52:52;4.35;;;3.20;;
21647;SDS011;10985;54.182;7.890;2023-07-08T11:55:27;5.18;;;3.33;;
21647;SDS011;10985;54.182;7.890;2023-07-08T11:58:02;3.42;;;3.13;;
21647;SDS011;10985;54.182;7.890;2023-07-08T12:00:32;6.07;;;3.17;;
21647;SDS011;10985;54.182;7.890;2023-07-08T12:03:03;5.75;;;3.30;;
21647;SDS011;10985;54.182;7.890;2023-07-08T12:05:43;6.05;;;3.63;;
21647;SDS011;10985;54.182;7.890;2023-07-08T12:08:13;3.72;;;3.40;;
21647;SDS011;10985;54.182;7.890;2023-07-08T12:10:41;7.97;;;3.42;;
21647;SDS011;10985;54.182;7.890;2023-07-08T12:13:14;4.88;;;3.20;;
21647;SDS011;10985;54.182;7.890;2023-07-08T12:15:42;3.53;;;2.67;;
21647;SDS011;10985;54.182;7.890;2023-07-08T12:20:35;5.53;;;2.88;;
21647;SDS011;10985;54.182;7.890;2023-07-08T12:23:03;5.50;;;3.17;;
21647;SDS011;10985;54.182;7.890;2023-07-08T12:25:36;5.00;;;2.97;;
21647;SDS011;10985;54.182;7.890;2023-07-08T12:28:02;4.15;;;2.80;;
21647;SDS011;10985;54.182;7.890;2023-07-08T12:30:28;4.03;;;2.90;;
21647;SDS011;10985;54.182;7.890;2023-07-08T12:32:55;4.05;;;2.80;;
21647;SDS011;10985;54.182;7.890;2023-07-08T12:35:25;5.68;;;2.78;;
21647;SDS011;10985;54.182;7.890;2023-07-08T12:38:03;7.15;;;3.10;;
21647;SDS011;10985;54.182;7.890;2023-07-08T12:40:40;5.50;;;3.15;;
21647;SDS011;10985;54.182;7.890;2023-07-08T12:43:07;6.90;;;2.72;;
21647;SDS011;10985;54.182;7.890;2023-07-08T12:45:35;4.60;;;3.10;;
21647;SDS011;10985;54.182;7.890;2023-07-08T12:48:01;3.40;;;3.10;;
21647;SDS011;10985;54.182;7.890;2023-07-08T12:50:27;4.63;;;3.45;;
21647;SDS011;10985;54.182;7.890;2023-07-08T12:52:53;5.18;;;2.85;;
21647;SDS011;10985;54.182;7.890;2023-07-08T12:55:19;5.40;;;2.80;;
21647;SDS011;10985;54.182;7.890;2023-07-08T12:57:45;5.50;;;2.95;;
21647;SDS011;10985;54.182;7.890;2023-07-08T13:00:23;5.82;;;3.13;;
21647;SDS011;10985;54.182;7.890;2023-07-08T13:02:55;5.22;;;3.08;;
21647;SDS011;10985;54.182;7.890;2023-07-08T13:05:24;3.20;;;2.42;;
21647;SDS011;10985;54.182;7.890;2023-07-08T13:07:51;3.55;;;2.92;;
21647;SDS011;10985;54.182;7.890;2023-07-08T13:10:18;4.85;;;3.22;;
21647;SDS011;10985;54.182;7.890;2023-07-08T13:12:46;4.32;;;3.00;;
21647;SDS011;10985;54.182;7.890;2023-07-08T13:15:20;5.68;;;3.13;;
21647;SDS011;10985;54.182;7.890;2023-07-08T13:17:48;3.50;;;2.75;;
21647;SDS011;10985;54.182;7.890;2023-07-08T13:20:14;5.07;;;3.50;;
21647;SDS011;10985;54.182;7.890;2023-07-08T13:22:41;3.80;;;2.58;;
21647;SDS011;10985;54.182;7.890;2023-07-08T13:25:14;5.30;;;2.95;;
21647;SDS011;10985;54.182;7.890;2023-07-08T13:27:41;4.05;;;2.97;;
21647;SDS011;10985;54.182;7.890;2023-07-08T13:30:16;5.38;;;2.63;;
21647;SDS011;10985;54.182;7.890;2023-07-08T13:32:44;4.55;;;2.72;;
21647;SDS011;10985;54.182;7.890;2023-07-08T13:35:29;4.03;;;2.70;;
21647;SDS011;10985;54.182;7.890;2023-07-08T13:38:01;4.88;;;2.92;;
21647;SDS011;10985;54.182;7.890;2023-07-08T13:40:30;4.57;;;2.90;;
21647;SDS011;10985;54.182;7.890;2023-07-08T13:42:56;4.85;;;3.10;;
21647;SDS011;10985;54.182;7.890;2023-07-08T13:45:24;4.30;;;3.03;;
21647;SDS011;10985;54.182;7.890;2023-07-08T13:48:02;5.95;;;3.47;;
21647;SDS011;10985;54.182;7.890;2023-07-08T13:50:44;4.20;;;3.13;;
21647;SDS011;10985;54.182;7.890;2023-07-08T13:53:24;5.63;;;2.92;;
21647;SDS011;10985;54.182;7.890;2023-07-08T13:55:59;4.18;;;3.58;;
21647;SDS011;10985;54.182;7.890;2023-07-08T13:58:27;5.55;;;2.97;;
21647;SDS011;10985;54.182;7.890;2023-07-08T14:00:54;4.35;;;3.42;;
21647;SDS011;10985;54.182;7.890;2023-07-08T14:03:20;4.60;;;2.90;;
21647;SDS011;10985;54.182;7.890;2023-07-08T14:05:45;3.88;;;3.30;;
21647;SDS011;10985;54.182;7.890;2023-07-08T14:08:15;3.67;;;2.60;;
21647;SDS011;10985;54.182;7.890;2023-07-08T14:10:47;4.95;;;3.03;;
21647;SDS011;10985;54.182;7.890;2023-07-08T14:13:12;7.97;;;4.28;;
21647;SDS011;10985;54.182;7.890;2023-07-08T14:15:39;4.75;;;3.78;;
21647;SDS011;10985;54.182;7.890;2023-07-08T14:18:04;5.07;;;3.15;;
21647;SDS011;10985;54.182;7.890;2023-07-08T14:20:31;6.85;;;3.25;;
21647;SDS011;10985;54.182;7.890;2023-07-08T14:22:57;5.15;;;3.13;;
21647;SDS011;10985;54.182;7.890;2023-07-08T14:25:22;4.20;;;3.15;;
21647;SDS011;10985;54.182;7.890;2023-07-08T14:27:51;4.93;;;3.45;;
21647;SDS011;10985;54.182;7.890;2023-07-08T14:30:17;4.18;;;2.92;;
21647;SDS011;10985;54.182;7.890;2023-07-08T14:32:43;4.45;;;3.50;;
21647;SDS011;10985;54.182;7.890;2023-07-08T14:35:24;4.95;;;3.50;;
21647;SDS011;10985;54.182;7.890;2023-07-08T14:37:52;4.82;;;3.88;;
21647;SDS011;10985;54.182;7.890;2023-07-08T14:42:59;5.13;;;3.25;;
21647;SDS011;10985;54.182;7.890;2023-07-08T14:45:27;9.10;;;4.07;;
21647;SDS011;10985;54.182;7.890;2023-07-08T14:47:55;6.30;;;3.72;;
21647;SDS011;10985;54.182;7.890;2023-07-08T14:50:20;7.40;;;4.63;;
21647;SDS011;10985;54.182;7.890;2023-07-08T14:52:47;7.03;;;4.28;;
21647;SDS011;10985;54.182;7.890;2023-07-08T14:55:12;4.38;;;3.92;;
21647;SDS011;10985;54.182;7.890;2023-07-08T14:57:44;3.42;;;3.13;;
21647;SDS011;10985;54.182;7.890;2023-07-08T15:00:16;5.60;;;3.60;;
21647;SDS011;10985;54.182;7.890;2023-07-08T15:02:43;7.93;;;3.90;;
21647;SDS011;10985;54.182;7.890;2023-07-08T15:07:41;8.70;;;4.95;;
21647;SDS011;10985;54.182;7.890;2023-07-08T15:10:07;6.00;;;3.90;;
21647;SDS011;10985;54.182;7.890;2023-07-08T15:12:33;6.00;;;4.22;;
21647;SDS011;10985;54.182;7.890;2023-07-08T15:14:59;11.95;;;4.07;;
21647;SDS011;10985;54.182;7.890;2023-07-08T15:17:24;9.18;;;3.90;;
21647;SDS011;10985;54.182;7.890;2023-07-08T15:19:50;4.90;;;3.67;;
21647;SDS011;10985;54.182;7.890;2023-07-08T15:22:16;10.50;;;8.90;;
21647;SDS011;10985;54.182;7.890;2023-07-08T15:24:41;7.03;;;5.22;;
21647;SDS011;10985;54.182;7.890;2023-07-08T15:27:09;5.60;;;4.60;;
21647;SDS011;10985;54.182;7.890;2023-07-08T15:29:37;9.15;;;5.35;;
21647;SDS011;10985;54.182;7.890;2023-07-08T15:32:03;10.80;;;8.50;;
21647;SDS011;10985;54.182;7.890;2023-07-08T15:34:33;7.25;;;5.28;;
21647;SDS011;10985;54.182;7.890;2023-07-08T15:36:58;6.78;;;5.00;;
21647;SDS011;10985;54.182;7.890;2023-07-08T15:39:24;7.88;;;5.22;;
21647;SDS011;10985;54.182;7.890;2023-07-08T15:41:49;9.65;;;6.03;;
21647;SDS011;10985;54.182;7.890;2023-07-08T15:44:15;7.43;;;4.32;;
21647;SDS011;10985;54.182;7.890;2023-07-08T15:46:45;7.60;;;5.22;;
21647;SDS011;10985;54.182;7.890;2023-07-08T15:49:17;8.60;;;4.50;;
21647;SDS011;10985;54.182;7.890;2023-07-08T15:51:45;7.47;;;4.63;;
21647;SDS011;10985;54.182;7.890;2023-07-08T15:54:11;11.85;;;4.65;;
21647;SDS011;10985;54.182;7.890;2023-07-08T15:56:36;9.27;;;5.10;;
21647;SDS011;10985;54.182;7.890;2023-07-08T15:59:03;6.20;;;4.05;;